sensor_id;sensor_type;location;lat;lon;timestamp;P1;durP1;ratioP1;P2;durP2;ratioP2
48897;SDS011;34713;50.038;20.000;2023-04-24T00:01:38;8.10;;;6.10;;
48897;SDS011;34713;50.038;20.000;2023-04-24T00:04:05;8.40;;;6.40;;
48897;SDS011;34713;50.038;20.000;2023-04-24T00:06:33;11.20;;;6.40;;
48897;SDS011;34713;50.038;20.000;2023-04-24T00:09:00;11.30;;;6.40;;
48897;SDS011;34713;50.038;20.000;2023-04-24T00:11:27;12.50;;;6.50;;
48897;SDS011;34713;50.038;20.000;2023-04-24T00:13:57;9.10;;;6.40;;
48897;SDS011;34713;50.038;20.000;2023-04-24T00:16:24;10.80;;;6.30;;
48897;SDS011;34713;50.038;20.000;2023-04-24T00:18:51;10.10;;;6.60;;
48897;SDS011;34713;50.038;20.000;2023-04-24T00:21:18;9.40;;;6.50;;
48897;SDS011;34713;50.038;20.000;2023-04-24T00:23:45;10.70;;;6.70;;
48897;SDS011;34713;50.038;20.000;2023-04-24T00:26:12;8.90;;;5.70;;
48897;SDS011;34713;50.038;20.000;2023-04-24T00:28:39;13.10;;;6.80;;
48897;SDS011;34713;50.038;20.000;2023-04-24T00:31:06;10.50;;;6.60;;
48897;SDS011;34713;50.038;20.000;2023-04-24T00:33:36;14.70;;;7.40;;
48897;SDS011;34713;50.038;20.000;2023-04-24T00:36:03;14.30;;;7.30;;
48897;SDS011;34713;50.038;20.000;2023-04-24T00:38:30;12.30;;;5.80;;
48897;SDS011;34713;50.038;20.000;2023-04-24T00:40:56;10.10;;;6.30;;
48897;SDS011;34713;50.038;20.000;2023-04-24T00:43:24;13.50;;;6.90;;
48897;SDS011;34713;50.038;20.000;2023-04-24T00:45:50;11.10;;;6.80;;
48897;SDS011;34713;50.038;20.000;2023-04-24T00:48:17;12.30;;;7.00;;
48897;SDS011;34713;50.038;20.000;2023-04-24T00:50:44;9.70;;;7.00;;
48897;SDS011;34713;50.038;20.000;2023-04-24T00:53:14;8.80;;;6.50;;
48897;SDS011;34713;50.038;20.000;2023-04-24T00:55:41;11.80;;;6.60;;
48897;SDS011;34713;50.038;20.000;2023-04-24T00:58:07;9.90;;;6.60;;
48897;SDS011;34713;50.038;20.000;2023-04-24T01:00:34;9.20;;;7.10;;
48897;SDS011;34713;50.038;20.000;2023-04-24T01:03:01;10.70;;;7.40;;
48897;SDS011;34713;50.038;20.000;2023-04-24T01:05:31;8.70;;;6.50;;
48897;SDS011;34713;50.038;20.000;2023-04-24T01:07:58;10.70;;;6.50;;
48897;SDS011;34713;50.038;20.000;2023-04-24T01:10:25;10.30;;;6.20;;
48897;SDS011;34713;50.038;20.000;2023-04-24T01:12:52;9.40;;;6.60;;
48897;SDS011;34713;50.038;20.000;2023-04-24T01:15:19;11.00;;;6.70;;
48897;SDS011;34713;50.038;20.000;2023-04-24T01:17:46;11.90;;;6.60;;
48897;SDS011;34713;50.038;20.000;2023-04-24T01:20:13;10.10;;;6.50;;
48897;SDS011;34713;50.038;20.000;2023-04-24T01:22:40;8.50;;;6.60;;
48897;SDS011;34713;50.038;20.000;2023-04-24T01:25:07;9.70;;;6.80;;
48897;SDS011;34713;50.038;20.000;2023-04-24T01:27:34;17.20;;;7.10;;
48897;SDS011;34713;50.038;20.000;2023-04-24T01:30:01;10.50;;;6.90;;
48897;SDS011;34713;50.038;20.000;2023-04-24T01:32:28;10.40;;;6.70;;
48897;SDS011;34713;50.038;20.000;2023-04-24T01:34:55;15.10;;;6.80;;
48897;SDS011;34713;50.038;20.000;2023-04-24T01:37:22;13.00;;;6.70;;
48897;SDS011;34713;50.038;20.000;2023-04-24T01:39:51;11.40;;;7.10;;
48897;SDS011;34713;50.038;20.000;2023-04-24T01:42:17;12.50;;;7.10;;
48897;SDS011;34713;50.038;20.000;2023-04-24T01:44:44;10.50;;;6.90;;
48897;SDS011;34713;50.038;20.000;2023-04-24T01:47:11;11.70;;;7.00;;
48897;SDS011;34713;50.038;20.000;2023-04-24T01:49:38;14.20;;;7.20;;
48897;SDS011;34713;50.038;20.000;2023-04-24T01:52:05;13.20;;;7.20;;
48897;SDS011;34713;50.038;20.000;2023-04-24T01:54:34;11.00;;;6.70;;
48897;SDS011;34713;50.038;20.000;2023-04-24T01:57:01;11.00;;;7.20;;
48897;SDS011;34713;50.038;20.000;2023-04-24T01:59:28;15.10;;;7.10;;
48897;SDS011;34713;50.038;20.000;2023-04-24T02:01:56;9.90;;;7.00;;
48897;SDS011;34713;50.038;20.000;2023-04-24T02:04:25;11.80;;;6.90;;
48897;SDS011;34713;50.038;20.000;2023-04-24T02:06:52;11.70;;;6.80;;
48897;SDS011;34713;50.038;20.000;2023-04-24T02:09:19;14.30;;;7.50;;
48897;SDS011;34713;50.038;20.000;2023-04-24T02:11:46;13.10;;;7.40;;
48897;SDS011;34713;50.038;20.000;2023-04-24T02:14:12;10.40;;;6.90;;
48897;SDS011;34713;50.038;20.000;2023-04-24T02:16:39;14.10;;;7.20;;
48897;SDS011;34713;50.038;20.000;2023-04-24T02:19:06;11.60;;;7.20;;
48897;SDS011;34713;50.038;20.000;2023-04-24T02:21:33;16.10;;;8.00;;
48897;SDS011;34713;50.038;20.000;2023-04-24T02:24:00;19.80;;;8.20;;
48897;SDS011;34713;50.038;20.000;2023-04-24T02:26:27;12.70;;;7.60;;
48897;SDS011;34713;50.038;20.000;2023-04-24T02:28:54;14.90;;;7.10;;
48897;SDS011;34713;50.038;20.000;2023-04-24T02:31:24;16.70;;;7.90;;
48897;SDS011;34713;50.038;20.000;2023-04-24T02:33:50;10.10;;;7.70;;
48897;SDS011;34713;50.038;20.000;2023-04-24T02:36:17;10.70;;;7.30;;
48897;SDS011;34713;50.038;20.000;2023-04-24T02:38:44;12.80;;;7.30;;
48897;SDS011;34713;50.038;20.000;2023-04-24T02:41:10;13.00;;;7.80;;
48897;SDS011;34713;50.038;20.000;2023-04-24T02:43:39;13.70;;;7.20;;
48897;SDS011;34713;50.038;20.000;2023-04-24T02:46:08;29.90;;;8.20;;
48897;SDS011;34713;50.038;20.000;2023-04-24T02:48:35;18.40;;;7.90;;
48897;SDS011;34713;50.038;20.000;2023-04-24T02:51:02;34.30;;;9.30;;
48897;SDS011;34713;50.038;20.000;2023-04-24T02:53:29;36.80;;;9.90;;
48897;SDS011;34713;50.038;20.000;2023-04-24T02:55:56;29.10;;;9.40;;
48897;SDS011;34713;50.038;20.000;2023-04-24T02:58:27;34.00;;;9.70;;
48897;SDS011;34713;50.038;20.000;2023-04-24T03:00:54;43.80;;;9.70;;
48897;SDS011;34713;50.038;20.000;2023-04-24T03:03:22;42.50;;;10.00;;
48897;SDS011;34713;50.038;20.000;2023-04-24T03:05:48;28.50;;;8.60;;
48897;SDS011;34713;50.038;20.000;2023-04-24T03:08:15;25.00;;;9.10;;
48897;SDS011;34713;50.038;20.000;2023-04-24T03:10:47;19.80;;;8.80;;
48897;SDS011;34713;50.038;20.000;2023-04-24T03:13:17;14.80;;;8.50;;
48897;SDS011;34713;50.038;20.000;2023-04-24T03:15:44;13.40;;;9.30;;
48897;SDS011;34713;50.038;20.000;2023-04-24T03:18:12;14.60;;;10.20;;
48897;SDS011;34713;50.038;20.000;2023-04-24T03:20:39;17.00;;;8.70;;
48897;SDS011;34713;50.038;20.000;2023-04-24T03:23:06;14.80;;;8.70;;
48897;SDS011;34713;50.038;20.000;2023-04-24T03:25:32;13.50;;;8.70;;
48897;SDS011;34713;50.038;20.000;2023-04-24T03:27:59;16.00;;;8.50;;
48897;SDS011;34713;50.038;20.000;2023-04-24T03:30:26;16.80;;;8.90;;
48897;SDS011;34713;50.038;20.000;2023-04-24T03:32:53;17.90;;;9.30;;
48897;SDS011;34713;50.038;20.000;2023-04-24T03:35:20;17.50;;;9.60;;
48897;SDS011;34713;50.038;20.000;2023-04-24T03:37:48;12.70;;;8.70;;
48897;SDS011;34713;50.038;20.000;2023-04-24T03:40:14;16.10;;;8.70;;
48897;SDS011;34713;50.038;20.000;2023-04-24T03:42:41;16.50;;;8.90;;
48897;SDS011;34713;50.038;20.000;2023-04-24T03:45:08;16.80;;;9.30;;
48897;SDS011;34713;50.038;20.000;2023-04-24T03:47:35;12.70;;;8.90;;
48897;SDS011;34713;50.038;20.000;2023-04-24T03:50:16;13.90;;;9.10;;
48897;SDS011;34713;50.038;20.000;2023-04-24T03:52:42;17.40;;;10.10;;
48897;SDS011;34713;50.038;20.000;2023-04-24T03:55:09;23.70;;;9.30;;
48897;SDS011;34713;50.038;20.000;2023-04-24T03:57:40;15.50;;;8.20;;
48897;SDS011;34713;50.038;20.000;2023-04-24T04:00:07;21.00;;;8.00;;
48897;SDS011;34713;50.038;20.000;2023-04-24T04:02:35;16.40;;;8.60;;
48897;SDS011;34713;50.038;20.000;2023-04-24T04:05:02;17.90;;;7.90;;
48897;SDS011;34713;50.038;20.000;2023-04-24T04:07:28;17.10;;;8.60;;
48897;SDS011;34713;50.038;20.000;2023-04-24T04:09:56;16.40;;;8.50;;
48897;SDS011;34713;50.038;20.000;2023-04-24T04:12:22;13.80;;;8.10;;
48897;SDS011;34713;50.038;20.000;2023-04-24T04:14:49;20.50;;;8.50;;
48897;SDS011;34713;50.038;20.000;2023-04-24T04:17:16;16.10;;;8.90;;
48897;SDS011;34713;50.038;20.000;2023-04-24T04:19:43;19.30;;;9.20;;
48897;SDS011;34713;50.038;20.000;2023-04-24T04:22:10;20.70;;;8.90;;
48897;SDS011;34713;50.038;20.000;2023-04-24T04:24:37;22.70;;;10.40;;
48897;SDS011;34713;50.038;20.000;2023-04-24T04:27:06;22.60;;;8.90;;
48897;SDS011;34713;50.038;20.000;2023-04-24T04:29:34;23.50;;;10.00;;
48897;SDS011;34713;50.038;20.000;2023-04-24T04:32:02;33.10;;;10.00;;
48897;SDS011;34713;50.038;20.000;2023-04-24T04:34:29;29.20;;;9.30;;
48897;SDS011;34713;50.038;20.000;2023-04-24T04:36:58;20.60;;;10.50;;
48897;SDS011;34713;50.038;20.000;2023-04-24T04:39:27;23.40;;;9.40;;
48897;SDS011;34713;50.038;20.000;2023-04-24T04:41:54;24.50;;;8.60;;
48897;SDS011;34713;50.038;20.000;2023-04-24T04:44:21;21.40;;;9.30;;
48897;SDS011;34713;50.038;20.000;2023-04-24T04:46:48;19.20;;;8.70;;
48897;SDS011;34713;50.038;20.000;2023-04-24T04:49:15;26.50;;;9.50;;
48897;SDS011;34713;50.038;20.000;2023-04-24T04:51:43;29.00;;;9.90;;
48897;SDS011;34713;50.038;20.000;2023-04-24T04:54:09;30.40;;;9.60;;
48897;SDS011;34713;50.038;20.000;2023-04-24T04:56:36;32.10;;;9.30;;
48897;SDS011;34713;50.038;20.000;2023-04-24T04:59:05;46.30;;;9.40;;
48897;SDS011;34713;50.038;20.000;2023-04-24T05:01:32;29.10;;;9.40;;
48897;SDS011;34713;50.038;20.000;2023-04-24T05:03:59;34.90;;;9.50;;
48897;SDS011;34713;50.038;20.000;2023-04-24T05:06:26;22.00;;;9.50;;
48897;SDS011;34713;50.038;20.000;2023-04-24T05:08:53;19.90;;;9.90;;
48897;SDS011;34713;50.038;20.000;2023-04-24T05:11:23;22.50;;;8.90;;
48897;SDS011;34713;50.038;20.000;2023-04-24T05:13:50;24.00;;;10.70;;
48897;SDS011;34713;50.038;20.000;2023-04-24T05:16:16;15.50;;;9.40;;
48897;SDS011;34713;50.038;20.000;2023-04-24T05:18:43;14.00;;;8.40;;
48897;SDS011;34713;50.038;20.000;2023-04-24T05:21:10;10.40;;;7.40;;
48897;SDS011;34713;50.038;20.000;2023-04-24T05:23:39;12.90;;;7.30;;
48897;SDS011;34713;50.038;20.000;2023-04-24T05:26:05;10.20;;;6.80;;
48897;SDS011;34713;50.038;20.000;2023-04-24T05:28:32;11.60;;;7.20;;
48897;SDS011;34713;50.038;20.000;2023-04-24T05:31:02;13.40;;;6.10;;
48897;SDS011;34713;50.038;20.000;2023-04-24T05:33:29;12.80;;;5.70;;
48897;SDS011;34713;50.038;20.000;2023-04-24T05:35:56;14.00;;;5.30;;
48897;SDS011;34713;50.038;20.000;2023-04-24T05:38:23;8.10;;;5.60;;
48897;SDS011;34713;50.038;20.000;2023-04-24T05:40:50;8.00;;;4.80;;
48897;SDS011;34713;50.038;20.000;2023-04-24T05:43:17;13.60;;;5.00;;
48897;SDS011;34713;50.038;20.000;2023-04-24T05:45:43;7.50;;;5.10;;
48897;SDS011;34713;50.038;20.000;2023-04-24T05:48:10;8.90;;;4.80;;
48897;SDS011;34713;50.038;20.000;2023-04-24T05:50:39;11.40;;;4.20;;
48897;SDS011;34713;50.038;20.000;2023-04-24T05:53:08;8.00;;;4.10;;
48897;SDS011;34713;50.038;20.000;2023-04-24T05:55:38;13.20;;;4.20;;
48897;SDS011;34713;50.038;20.000;2023-04-24T05:58:05;11.20;;;4.40;;
48897;SDS011;34713;50.038;20.000;2023-04-24T06:00:32;9.70;;;4.50;;
48897;SDS011;34713;50.038;20.000;2023-04-24T06:03:05;11.10;;;4.50;;
48897;SDS011;34713;50.038;20.000;2023-04-24T06:05:35;12.80;;;5.10;;
48897;SDS011;34713;50.038;20.000;2023-04-24T06:08:11;7.80;;;4.50;;
48897;SDS011;34713;50.038;20.000;2023-04-24T06:10:38;9.90;;;4.30;;
48897;SDS011;34713;50.038;20.000;2023-04-24T06:13:05;10.10;;;4.80;;
48897;SDS011;34713;50.038;20.000;2023-04-24T06:15:32;10.20;;;4.90;;
48897;SDS011;34713;50.038;20.000;2023-04-24T06:17:59;8.30;;;3.90;;
48897;SDS011;34713;50.038;20.000;2023-04-24T06:20:26;8.40;;;3.80;;
48897;SDS011;34713;50.038;20.000;2023-04-24T06:23:13;9.40;;;3.80;;
48897;SDS011;34713;50.038;20.000;2023-04-24T06:25:39;8.30;;;4.00;;
48897;SDS011;34713;50.038;20.000;2023-04-24T06:28:06;8.00;;;3.20;;
48897;SDS011;34713;50.038;20.000;2023-04-24T06:30:33;6.10;;;3.40;;
48897;SDS011;34713;50.038;20.000;2023-04-24T06:33:00;8.60;;;3.30;;
48897;SDS011;34713;50.038;20.000;2023-04-24T06:35:26;4.50;;;2.90;;
48897;SDS011;34713;50.038;20.000;2023-04-24T06:37:53;19.20;;;4.00;;
48897;SDS011;34713;50.038;20.000;2023-04-24T06:40:22;15.90;;;4.30;;
48897;SDS011;34713;50.038;20.000;2023-04-24T06:42:49;17.00;;;3.90;;
48897;SDS011;34713;50.038;20.000;2023-04-24T06:45:16;30.00;;;6.20;;
48897;SDS011;34713;50.038;20.000;2023-04-24T06:47:42;44.20;;;7.90;;
48897;SDS011;34713;50.038;20.000;2023-04-24T06:50:11;28.90;;;7.30;;
48897;SDS011;34713;50.038;20.000;2023-04-24T06:52:38;21.10;;;5.10;;
48897;SDS011;34713;50.038;20.000;2023-04-24T06:55:05;11.90;;;3.80;;
48897;SDS011;34713;50.038;20.000;2023-04-24T06:57:32;13.60;;;3.30;;
48897;SDS011;34713;50.038;20.000;2023-04-24T06:59:59;5.90;;;2.40;;
48897;SDS011;34713;50.038;20.000;2023-04-24T07:02:28;8.20;;;2.80;;
48897;SDS011;34713;50.038;20.000;2023-04-24T07:04:55;10.20;;;2.90;;
48897;SDS011;34713;50.038;20.000;2023-04-24T07:07:23;5.80;;;2.60;;
48897;SDS011;34713;50.038;20.000;2023-04-24T07:09:52;8.50;;;2.60;;
48897;SDS011;34713;50.038;20.000;2023-04-24T07:12:20;5.70;;;2.70;;
48897;SDS011;34713;50.038;20.000;2023-04-24T07:14:48;16.60;;;3.00;;
48897;SDS011;34713;50.038;20.000;2023-04-24T07:17:15;11.40;;;3.00;;
48897;SDS011;34713;50.038;20.000;2023-04-24T07:19:44;12.00;;;3.20;;
48897;SDS011;34713;50.038;20.000;2023-04-24T07:22:11;10.20;;;3.60;;
48897;SDS011;34713;50.038;20.000;2023-04-24T07:24:46;22.50;;;4.40;;
48897;SDS011;34713;50.038;20.000;2023-04-24T07:27:12;22.00;;;4.50;;
48897;SDS011;34713;50.038;20.000;2023-04-24T07:29:41;18.80;;;5.50;;
48897;SDS011;34713;50.038;20.000;2023-04-24T07:32:07;98.10;;;15.60;;
48897;SDS011;34713;50.038;20.000;2023-04-24T07:34:35;52.90;;;9.00;;
48897;SDS011;34713;50.038;20.000;2023-04-24T07:37:02;38.40;;;6.00;;
48897;SDS011;34713;50.038;20.000;2023-04-24T07:39:29;28.50;;;6.40;;
48897;SDS011;34713;50.038;20.000;2023-04-24T07:41:56;26.20;;;5.20;;
48897;SDS011;34713;50.038;20.000;2023-04-24T07:44:23;25.40;;;5.00;;
48897;SDS011;34713;50.038;20.000;2023-04-24T07:46:49;18.00;;;4.80;;
48897;SDS011;34713;50.038;20.000;2023-04-24T07:49:16;16.10;;;4.40;;
48897;SDS011;34713;50.038;20.000;2023-04-24T07:51:43;9.70;;;3.40;;
48897;SDS011;34713;50.038;20.000;2023-04-24T07:54:09;11.70;;;3.70;;
48897;SDS011;34713;50.038;20.000;2023-04-24T07:56:36;12.20;;;3.70;;
48897;SDS011;34713;50.038;20.000;2023-04-24T07:59:05;7.90;;;3.80;;
48897;SDS011;34713;50.038;20.000;2023-04-24T08:01:32;8.30;;;3.20;;
48897;SDS011;34713;50.038;20.000;2023-04-24T08:03:59;7.00;;;2.60;;
48897;SDS011;34713;50.038;20.000;2023-04-24T08:06:26;5.80;;;2.60;;
48897;SDS011;34713;50.038;20.000;2023-04-24T08:08:56;10.80;;;2.90;;
48897;SDS011;34713;50.038;20.000;2023-04-24T08:11:23;5.70;;;3.10;;
48897;SDS011;34713;50.038;20.000;2023-04-24T08:13:50;7.70;;;2.60;;
48897;SDS011;34713;50.038;20.000;2023-04-24T08:16:17;6.30;;;2.70;;
48897;SDS011;34713;50.038;20.000;2023-04-24T08:18:44;6.80;;;2.40;;
48897;SDS011;34713;50.038;20.000;2023-04-24T08:21:11;3.40;;;2.30;;
48897;SDS011;34713;50.038;20.000;2023-04-24T08:23:43;7.00;;;2.40;;
48897;SDS011;34713;50.038;20.000;2023-04-24T08:26:10;8.10;;;2.40;;
48897;SDS011;34713;50.038;20.000;2023-04-24T08:28:37;5.90;;;2.70;;
48897;SDS011;34713;50.038;20.000;2023-04-24T08:31:13;3.70;;;2.70;;
48897;SDS011;34713;50.038;20.000;2023-04-24T08:33:39;8.10;;;2.80;;
48897;SDS011;34713;50.038;20.000;2023-04-24T08:36:10;7.90;;;2.60;;
48897;SDS011;34713;50.038;20.000;2023-04-24T08:38:47;4.70;;;2.30;;
48897;SDS011;34713;50.038;20.000;2023-04-24T08:41:23;8.00;;;2.60;;
48897;SDS011;34713;50.038;20.000;2023-04-24T08:44:11;4.30;;;2.50;;
48897;SDS011;34713;50.038;20.000;2023-04-24T08:46:40;10.50;;;2.90;;
48897;SDS011;34713;50.038;20.000;2023-04-24T08:49:14;6.40;;;2.60;;
48897;SDS011;34713;50.038;20.000;2023-04-24T08:51:44;4.60;;;2.50;;
48897;SDS011;34713;50.038;20.000;2023-04-24T08:54:14;5.70;;;2.50;;
48897;SDS011;34713;50.038;20.000;2023-04-24T08:56:42;5.60;;;2.50;;
48897;SDS011;34713;50.038;20.000;2023-04-24T08:59:13;5.20;;;2.60;;
48897;SDS011;34713;50.038;20.000;2023-04-24T09:01:43;6.00;;;2.30;;
48897;SDS011;34713;50.038;20.000;2023-04-24T09:04:11;3.60;;;2.30;;
48897;SDS011;34713;50.038;20.000;2023-04-24T09:06:42;6.70;;;2.40;;
48897;SDS011;34713;50.038;20.000;2023-04-24T09:09:33;5.70;;;3.00;;
48897;SDS011;34713;50.038;20.000;2023-04-24T09:11:59;3.90;;;1.90;;
48897;SDS011;34713;50.038;20.000;2023-04-24T09:14:27;4.40;;;2.10;;
48897;SDS011;34713;50.038;20.000;2023-04-24T09:16:54;3.50;;;2.00;;
48897;SDS011;34713;50.038;20.000;2023-04-24T09:19:21;3.40;;;2.10;;
48897;SDS011;34713;50.038;20.000;2023-04-24T09:21:48;6.50;;;2.40;;
48897;SDS011;34713;50.038;20.000;2023-04-24T09:24:17;7.20;;;2.60;;
48897;SDS011;34713;50.038;20.000;2023-04-24T09:26:46;5.90;;;2.30;;
48897;SDS011;34713;50.038;20.000;2023-04-24T09:29:16;6.80;;;3.50;;
48897;SDS011;34713;50.038;20.000;2023-04-24T09:31:44;11.20;;;3.20;;
48897;SDS011;34713;50.038;20.000;2023-04-24T09:34:11;4.50;;;2.50;;
48897;SDS011;34713;50.038;20.000;2023-04-24T09:36:39;6.40;;;3.10;;
48897;SDS011;34713;50.038;20.000;2023-04-24T09:39:09;5.50;;;2.40;;
48897;SDS011;34713;50.038;20.000;2023-04-24T09:41:45;6.60;;;2.30;;
48897;SDS011;34713;50.038;20.000;2023-04-24T09:44:15;5.70;;;2.70;;
48897;SDS011;34713;50.038;20.000;2023-04-24T09:46:43;9.10;;;2.70;;
48897;SDS011;34713;50.038;20.000;2023-04-24T09:49:14;9.50;;;2.60;;
48897;SDS011;34713;50.038;20.000;2023-04-24T09:51:42;5.90;;;2.60;;
48897;SDS011;34713;50.038;20.000;2023-04-24T09:54:13;7.10;;;2.40;;
48897;SDS011;34713;50.038;20.000;2023-04-24T09:56:42;3.90;;;2.00;;
48897;SDS011;34713;50.038;20.000;2023-04-24T09:59:11;6.80;;;2.50;;
48897;SDS011;34713;50.038;20.000;2023-04-24T10:01:39;4.40;;;2.60;;
48897;SDS011;34713;50.038;20.000;2023-04-24T10:07:02;3.40;;;2.30;;
48897;SDS011;34713;50.038;20.000;2023-04-24T10:09:32;4.40;;;2.50;;
48897;SDS011;34713;50.038;20.000;2023-04-24T10:11:59;4.30;;;2.30;;
48897;SDS011;34713;50.038;20.000;2023-04-24T10:14:28;6.30;;;2.30;;
48897;SDS011;34713;50.038;20.000;2023-04-24T10:16:55;6.00;;;2.30;;
48897;SDS011;34713;50.038;20.000;2023-04-24T10:19:25;4.50;;;2.20;;
48897;SDS011;34713;50.038;20.000;2023-04-24T10:21:52;5.10;;;2.30;;
48897;SDS011;34713;50.038;20.000;2023-04-24T10:24:22;5.10;;;2.30;;
48897;SDS011;34713;50.038;20.000;2023-04-24T10:26:48;3.50;;;2.10;;
48897;SDS011;34713;50.038;20.000;2023-04-24T10:29:18;3.20;;;2.40;;
48897;SDS011;34713;50.038;20.000;2023-04-24T10:35:03;3.90;;;2.50;;
48897;SDS011;34713;50.038;20.000;2023-04-24T10:37:36;8.20;;;2.50;;
48897;SDS011;34713;50.038;20.000;2023-04-24T10:40:07;3.70;;;2.20;;
48897;SDS011;34713;50.038;20.000;2023-04-24T10:42:39;3.00;;;1.80;;
48897;SDS011;34713;50.038;20.000;2023-04-24T10:45:11;3.70;;;2.00;;
48897;SDS011;34713;50.038;20.000;2023-04-24T10:47:50;4.40;;;2.00;;
48897;SDS011;34713;50.038;20.000;2023-04-24T10:50:23;4.40;;;2.20;;
48897;SDS011;34713;50.038;20.000;2023-04-24T10:52:49;7.40;;;3.00;;
48897;SDS011;34713;50.038;20.000;2023-04-24T10:55:31;3.70;;;2.50;;
48897;SDS011;34713;50.038;20.000;2023-04-24T10:58:17;7.10;;;2.50;;
48897;SDS011;34713;50.038;20.000;2023-04-24T11:00:58;5.10;;;2.30;;
48897;SDS011;34713;50.038;20.000;2023-04-24T11:03:33;7.80;;;2.10;;
48897;SDS011;34713;50.038;20.000;2023-04-24T11:06:02;4.70;;;2.70;;
48897;SDS011;34713;50.038;20.000;2023-04-24T11:08:37;6.80;;;2.20;;
48897;SDS011;34713;50.038;20.000;2023-04-24T11:21:39;3.30;;;2.20;;
48897;SDS011;34713;50.038;20.000;2023-04-24T11:27:13;3.30;;;2.40;;
48897;SDS011;34713;50.038;20.000;2023-04-24T11:29:49;9.10;;;2.70;;
48897;SDS011;34713;50.038;20.000;2023-04-24T11:32:26;4.10;;;2.40;;
48897;SDS011;34713;50.038;20.000;2023-04-24T11:34:59;4.70;;;2.80;;
48897;SDS011;34713;50.038;20.000;2023-04-24T11:37:37;4.40;;;2.20;;
48897;SDS011;34713;50.038;20.000;2023-04-24T11:40:09;7.10;;;2.40;;
48897;SDS011;34713;50.038;20.000;2023-04-24T11:42:39;7.60;;;2.30;;
48897;SDS011;34713;50.038;20.000;2023-04-24T11:45:10;4.90;;;2.50;;
48897;SDS011;34713;50.038;20.000;2023-04-24T11:47:41;6.90;;;3.00;;
48897;SDS011;34713;50.038;20.000;2023-04-24T11:50:10;5.20;;;2.70;;
48897;SDS011;34713;50.038;20.000;2023-04-24T11:52:40;4.70;;;2.70;;
48897;SDS011;34713;50.038;20.000;2023-04-24T11:55:23;7.10;;;2.30;;
48897;SDS011;34713;50.038;20.000;2023-04-24T11:57:53;5.50;;;2.60;;
48897;SDS011;34713;50.038;20.000;2023-04-24T12:00:28;4.70;;;2.70;;
48897;SDS011;34713;50.038;20.000;2023-04-24T12:03:11;6.60;;;2.70;;
48897;SDS011;34713;50.038;20.000;2023-04-24T12:05:38;10.10;;;3.30;;
48897;SDS011;34713;50.038;20.000;2023-04-24T12:08:05;7.00;;;2.50;;
48897;SDS011;34713;50.038;20.000;2023-04-24T12:10:33;4.10;;;2.70;;
48897;SDS011;34713;50.038;20.000;2023-04-24T12:13:00;5.80;;;2.70;;
48897;SDS011;34713;50.038;20.000;2023-04-24T12:15:27;4.60;;;2.80;;
48897;SDS011;34713;50.038;20.000;2023-04-24T12:17:55;4.70;;;2.50;;
48897;SDS011;34713;50.038;20.000;2023-04-24T12:20:26;5.80;;;2.60;;
48897;SDS011;34713;50.038;20.000;2023-04-24T12:22:57;5.10;;;2.40;;
48897;SDS011;34713;50.038;20.000;2023-04-24T12:25:36;6.40;;;2.60;;
48897;SDS011;34713;50.038;20.000;2023-04-24T12:30:32;5.10;;;3.00;;
48897;SDS011;34713;50.038;20.000;2023-04-24T12:33:02;6.80;;;2.60;;
48897;SDS011;34713;50.038;20.000;2023-04-24T12:35:30;9.40;;;2.90;;
48897;SDS011;34713;50.038;20.000;2023-04-24T12:38:09;5.60;;;2.90;;
48897;SDS011;34713;50.038;20.000;2023-04-24T12:40:37;10.10;;;3.50;;
48897;SDS011;34713;50.038;20.000;2023-04-24T12:43:22;7.40;;;3.40;;
48897;SDS011;34713;50.038;20.000;2023-04-24T12:45:49;9.00;;;3.40;;
48897;SDS011;34713;50.038;20.000;2023-04-24T12:48:15;8.20;;;3.00;;
48897;SDS011;34713;50.038;20.000;2023-04-24T12:50:42;7.80;;;2.70;;
48897;SDS011;34713;50.038;20.000;2023-04-24T12:53:10;3.90;;;2.80;;
48897;SDS011;34713;50.038;20.000;2023-04-24T12:55:36;7.20;;;2.90;;
48897;SDS011;34713;50.038;20.000;2023-04-24T12:58:03;7.70;;;3.20;;
48897;SDS011;34713;50.038;20.000;2023-04-24T13:00:36;6.50;;;3.60;;
48897;SDS011;34713;50.038;20.000;2023-04-24T13:03:03;6.30;;;3.60;;
48897;SDS011;34713;50.038;20.000;2023-04-24T13:05:34;10.10;;;4.10;;
48897;SDS011;34713;50.038;20.000;2023-04-24T13:08:01;7.20;;;4.00;;
48897;SDS011;34713;50.038;20.000;2023-04-24T13:10:28;7.40;;;3.80;;
48897;SDS011;34713;50.038;20.000;2023-04-24T13:12:54;12.30;;;4.60;;
48897;SDS011;34713;50.038;20.000;2023-04-24T13:15:21;9.70;;;3.60;;
48897;SDS011;34713;50.038;20.000;2023-04-24T13:17:48;9.30;;;4.00;;
48897;SDS011;34713;50.038;20.000;2023-04-24T13:20:15;5.80;;;4.30;;
48897;SDS011;34713;50.038;20.000;2023-04-24T13:22:45;6.10;;;3.40;;
48897;SDS011;34713;50.038;20.000;2023-04-24T13:25:12;8.00;;;3.40;;
48897;SDS011;34713;50.038;20.000;2023-04-24T13:27:38;7.00;;;3.20;;
48897;SDS011;34713;50.038;20.000;2023-04-24T13:30:06;6.10;;;3.00;;
48897;SDS011;34713;50.038;20.000;2023-04-24T13:32:33;8.20;;;2.80;;
48897;SDS011;34713;50.038;20.000;2023-04-24T13:35:01;2.60;;;2.10;;
48897;SDS011;34713;50.038;20.000;2023-04-24T13:37:28;6.20;;;2.70;;
48897;SDS011;34713;50.038;20.000;2023-04-24T13:39:55;4.70;;;2.80;;
48897;SDS011;34713;50.038;20.000;2023-04-24T13:42:22;5.50;;;2.50;;
48897;SDS011;34713;50.038;20.000;2023-04-24T13:44:48;8.80;;;3.20;;
48897;SDS011;34713;50.038;20.000;2023-04-24T13:47:17;3.70;;;2.50;;
48897;SDS011;34713;50.038;20.000;2023-04-24T13:49:43;6.10;;;2.60;;
48897;SDS011;34713;50.038;20.000;2023-04-24T13:52:13;4.70;;;3.20;;
48897;SDS011;34713;50.038;20.000;2023-04-24T13:54:40;6.10;;;3.00;;
48897;SDS011;34713;50.038;20.000;2023-04-24T13:57:07;4.40;;;2.90;;
48897;SDS011;34713;50.038;20.000;2023-04-24T13:59:34;4.70;;;2.70;;
48897;SDS011;34713;50.038;20.000;2023-04-24T14:02:01;7.80;;;2.60;;
48897;SDS011;34713;50.038;20.000;2023-04-24T14:04:28;4.90;;;2.40;;
48897;SDS011;34713;50.038;20.000;2023-04-24T14:06:54;4.40;;;2.80;;
48897;SDS011;34713;50.038;20.000;2023-04-24T14:09:26;3.70;;;2.70;;
48897;SDS011;34713;50.038;20.000;2023-04-24T14:11:53;4.70;;;2.50;;
48897;SDS011;34713;50.038;20.000;2023-04-24T14:14:20;4.60;;;2.60;;
48897;SDS011;34713;50.038;20.000;2023-04-24T14:16:46;3.50;;;2.00;;
48897;SDS011;34713;50.038;20.000;2023-04-24T14:19:13;3.80;;;2.10;;
48897;SDS011;34713;50.038;20.000;2023-04-24T14:21:40;3.40;;;2.10;;
48897;SDS011;34713;50.038;20.000;2023-04-24T14:24:16;3.10;;;2.40;;
48897;SDS011;34713;50.038;20.000;2023-04-24T14:26:45;3.80;;;2.10;;
48897;SDS011;34713;50.038;20.000;2023-04-24T14:29:15;3.50;;;2.20;;
48897;SDS011;34713;50.038;20.000;2023-04-24T14:31:42;3.90;;;2.20;;
48897;SDS011;34713;50.038;20.000;2023-04-24T14:34:09;3.30;;;1.90;;
48897;SDS011;34713;50.038;20.000;2023-04-24T14:36:36;5.10;;;2.10;;
48897;SDS011;34713;50.038;20.000;2023-04-24T14:39:03;4.00;;;2.00;;
48897;SDS011;34713;50.038;20.000;2023-04-24T14:41:32;3.40;;;1.70;;
48897;SDS011;34713;50.038;20.000;2023-04-24T14:44:05;4.40;;;1.80;;
48897;SDS011;34713;50.038;20.000;2023-04-24T14:46:35;2.40;;;1.70;;
48897;SDS011;34713;50.038;20.000;2023-04-24T14:49:02;3.00;;;1.80;;
48897;SDS011;34713;50.038;20.000;2023-04-24T14:51:32;5.00;;;2.10;;
48897;SDS011;34713;50.038;20.000;2023-04-24T14:53:58;1.70;;;1.60;;
48897;SDS011;34713;50.038;20.000;2023-04-24T14:56:28;3.60;;;2.10;;
48897;SDS011;34713;50.038;20.000;2023-04-24T14:58:55;2.80;;;1.80;;